createdAt,value
2023-01-07T00:01:07.766Z,1.17
2023-01-07T00:04:12.924Z,1.30
2023-01-07T00:07:15.218Z,1.24
2023-01-07T00:10:17.524Z,1.27
2023-01-07T00:13:19.767Z,1.16
2023-01-07T00:16:24.535Z,1.18
2023-01-07T00:19:26.939Z,1.37
2023-01-07T00:22:29.394Z,1.28
2023-01-07T00:25:31.751Z,1.23
2023-01-07T00:28:35.380Z,1.22
2023-01-07T00:31:40.019Z,1.32
2023-01-07T00:34:42.666Z,1.11
2023-01-07T00:37:50.876Z,1.13
2023-01-07T00:40:53.205Z,1.03
2023-01-07T00:43:56.556Z,1.04
2023-01-07T00:47:00.131Z,1.01
2023-01-07T00:50:02.561Z,0.90
2023-01-07T00:53:05.476Z,0.82
2023-01-07T00:56:08.206Z,0.67
2023-01-07T00:59:11.088Z,0.53
2023-01-07T01:02:13.650Z,0.48
2023-01-07T01:05:17.943Z,0.43
2023-01-07T01:08:21.527Z,0.44
2023-01-07T01:11:24.021Z,0.87
2023-01-07T01:14:27.315Z,0.87
2023-01-07T01:17:29.985Z,0.83
2023-01-07T01:20:32.353Z,0.71
2023-01-07T01:23:35.016Z,0.53
2023-01-07T01:26:37.821Z,0.84
2023-01-07T01:33:17.925Z,1.36
2023-01-07T01:36:21.305Z,1.51
2023-01-07T01:39:24.034Z,1.57
2023-01-07T01:42:26.645Z,1.58
2023-01-07T01:45:30.281Z,1.64
2023-01-07T01:48:34.491Z,1.83
2023-01-07T01:51:39.704Z,1.89
2023-01-07T01:54:45.846Z,1.84
2023-01-07T01:57:51.319Z,1.86
2023-01-07T02:00:54.216Z,1.82
2023-01-07T02:03:57.798Z,1.73
2023-01-07T02:07:16.470Z,1.37
2023-01-07T02:10:24.688Z,1.21
2023-01-07T02:13:39.780Z,1.35
2023-01-07T02:16:42.207Z,1.28
2023-01-07T02:20:17.328Z,1.32
2023-01-07T02:23:19.633Z,1.39
2023-01-07T02:26:21.871Z,1.48
2023-01-07T02:29:33.304Z,1.54
2023-01-07T02:32:44.485Z,1.30
2023-01-07T02:36:19.086Z,1.42
2023-01-07T02:39:39.879Z,1.37
2023-01-07T02:42:50.154Z,1.36
2023-01-07T02:46:11.625Z,1.29
2023-01-07T02:49:17.137Z,1.14
2023-01-07T02:52:27.759Z,1.16
2023-01-07T02:55:45.795Z,1.04
2023-01-07T02:59:15.646Z,1.02
2023-01-07T03:02:31.297Z,1.08
2023-01-07T03:05:41.811Z,1.12
2023-01-07T03:09:02.452Z,1.23
2023-01-07T03:12:11.828Z,1.14
2023-01-07T03:15:20.090Z,1.20
2023-01-07T03:18:27.742Z,1.25
2023-01-07T03:21:36.200Z,1.31
2023-01-07T03:24:39.538Z,1.51
2023-01-07T03:27:43.728Z,1.57
2023-01-07T03:30:47.526Z,1.59
2023-01-07T03:34:02.641Z,1.96
2023-01-07T03:37:13.373Z,1.79
2023-01-07T03:40:16.481Z,1.90
2023-01-07T03:43:20.657Z,1.94
2023-01-07T03:46:23.526Z,1.89
2023-01-07T03:49:25.865Z,1.87
2023-01-07T03:52:29.037Z,1.89
2023-01-07T03:55:32.214Z,1.83
2023-01-07T03:58:35.032Z,1.93
2023-01-07T04:01:37.917Z,2.03
2023-01-07T04:04:40.783Z,1.97
2023-01-07T04:07:43.600Z,1.88
2023-01-07T04:10:46.083Z,1.99
2023-01-07T04:13:49.467Z,1.98
2023-01-07T04:16:52.547Z,1.84
2023-01-07T04:19:55.204Z,2.00
2023-01-07T04:22:57.771Z,1.93
2023-01-07T04:26:00.179Z,1.87
2023-01-07T04:29:02.915Z,1.89
2023-01-07T04:32:05.887Z,1.88
2023-01-07T04:35:08.774Z,1.74
2023-01-07T04:38:11.207Z,1.71
2023-01-07T04:41:13.573Z,1.55
2023-01-07T04:44:17.715Z,1.61
2023-01-07T04:47:20.038Z,1.64
2023-01-07T04:50:24.092Z,1.61
2023-01-07T04:53:26.773Z,1.64
2023-01-07T04:56:29.148Z,1.97
2023-01-07T04:59:32.039Z,1.99
2023-01-07T05:02:36.189Z,2.07
2023-01-07T05:05:38.723Z,1.93
2023-01-07T05:08:41.567Z,1.77
2023-01-07T05:11:44.037Z,1.70
2023-01-07T05:14:47.886Z,1.69
2023-01-07T05:17:50.262Z,1.79
2023-01-07T05:20:52.651Z,1.66
2023-01-07T05:23:54.980Z,1.84
2023-01-07T05:26:58.288Z,1.87
2023-01-07T05:30:00.748Z,1.93
2023-01-07T05:33:03.155Z,1.99
2023-01-07T05:36:05.899Z,1.71
2023-01-07T05:39:08.233Z,1.66
2023-01-07T05:42:10.636Z,1.63
2023-01-07T05:45:13.060Z,1.51
2023-01-07T05:48:15.896Z,1.46
2023-01-07T05:51:18.277Z,1.56
2023-01-07T05:54:20.545Z,1.61
2023-01-07T05:57:22.860Z,1.65
2023-01-07T06:00:25.198Z,1.63
2023-01-07T06:03:27.606Z,1.62
2023-01-07T06:06:29.993Z,1.65
2023-01-07T06:09:32.336Z,1.66
2023-01-07T06:12:34.680Z,1.30
2023-01-07T06:15:37.179Z,1.42
2023-01-07T06:18:39.595Z,1.28
2023-01-07T06:21:41.827Z,1.22
2023-01-07T06:24:44.141Z,1.34
2023-01-07T06:27:46.478Z,1.50
2023-01-07T06:30:49.105Z,1.55
2023-01-07T06:33:51.506Z,1.57
2023-01-07T06:36:54.107Z,1.55
2023-01-07T06:39:56.655Z,1.41
2023-01-07T06:42:59.080Z,1.47
2023-01-07T06:46:01.443Z,1.57
2023-01-07T06:49:04.178Z,1.56
2023-01-07T06:52:06.693Z,1.46
2023-01-07T06:55:09.538Z,1.62
2023-01-07T06:58:12.035Z,1.75
2023-01-07T07:01:14.532Z,1.79
2023-01-07T07:04:16.953Z,1.70
2023-01-07T07:07:19.813Z,1.61
2023-01-07T07:10:22.105Z,1.62
2023-01-07T07:13:24.441Z,1.60
2023-01-07T07:16:26.978Z,1.76
2023-01-07T07:19:29.375Z,1.93
2023-01-07T07:22:31.808Z,2.02
2023-01-07T07:25:34.320Z,1.94
2023-01-07T07:28:37.074Z,2.08
2023-01-07T07:31:39.460Z,2.19
2023-01-07T07:34:41.921Z,2.09
2023-01-07T07:37:44.257Z,1.94
2023-01-07T07:40:47.401Z,2.04
2023-01-07T07:43:49.921Z,2.00
2023-01-07T07:46:52.384Z,1.99
2023-01-07T07:49:54.987Z,1.94
2023-01-07T07:52:57.433Z,1.97
2023-01-07T07:55:59.911Z,2.02
2023-01-07T07:59:02.241Z,1.98
2023-01-07T08:02:04.632Z,1.96
2023-01-07T08:05:07.951Z,2.10
2023-01-07T08:08:12.665Z,2.18
2023-01-07T08:11:15.016Z,2.17
2023-01-07T08:14:17.342Z,2.06
2023-01-07T08:17:19.768Z,1.92
2023-01-07T08:20:22.094Z,2.09
2023-01-07T08:23:24.509Z,1.99
2023-01-07T08:26:26.799Z,1.85
2023-01-07T08:29:29.162Z,1.97
2023-01-07T08:32:31.457Z,1.97
2023-01-07T08:35:34.070Z,2.02
2023-01-07T08:38:36.376Z,2.10
2023-01-07T08:41:38.782Z,2.19
2023-01-07T08:44:41.102Z,2.36
2023-01-07T08:47:47.863Z,2.36
2023-01-07T08:50:52.309Z,2.27
2023-01-07T08:53:55.582Z,2.15
2023-01-07T08:56:57.876Z,2.22
2023-01-07T09:00:00.446Z,2.10
2023-01-07T09:03:05.941Z,2.08
2023-01-07T09:06:08.665Z,2.21
2023-01-07T09:09:12.068Z,2.08
2023-01-07T09:12:14.665Z,2.14
2023-01-07T09:15:17.320Z,2.10
2023-01-07T09:18:21.763Z,2.01
2023-01-07T09:21:24.075Z,2.35
2023-01-07T09:24:26.463Z,2.29
2023-01-07T09:27:28.951Z,2.51
2023-01-07T09:30:31.302Z,2.47
2023-01-07T09:33:34.040Z,2.67
2023-01-07T09:36:36.450Z,2.59
2023-01-07T09:39:40.183Z,2.67
2023-01-07T09:43:02.997Z,2.64
2023-01-07T09:46:08.832Z,2.58
2023-01-07T09:49:18.613Z,2.68
2023-01-07T09:52:29.323Z,2.61
2023-01-07T09:55:37.216Z,2.57
2023-01-07T09:58:41.788Z,2.51
2023-01-07T10:02:02.237Z,2.73
2023-01-07T10:05:34.825Z,2.66
2023-01-07T10:08:39.876Z,2.82
2023-01-07T10:12:06.227Z,2.80
2023-01-07T10:15:29.936Z,2.89
2023-01-07T10:19:08.268Z,2.78
2023-01-07T10:22:16.797Z,2.89
2023-01-07T10:25:22.207Z,2.96
2023-01-07T10:28:37.392Z,2.97
2023-01-07T10:31:40.314Z,3.06
2023-01-07T10:34:46.251Z,2.98
2023-01-07T10:37:48.619Z,3.12
2023-01-07T10:40:55.386Z,3.12
2023-01-07T10:44:07.713Z,3.19
2023-01-07T10:47:23.517Z,3.38
2023-01-07T10:50:50.643Z,3.49
2023-01-07T10:54:14.666Z,3.59
2023-01-07T10:57:22.741Z,3.78
2023-01-07T11:00:25.777Z,3.89
2023-01-07T11:03:30.154Z,3.83
2023-01-07T11:06:42.172Z,4.01
2023-01-07T11:09:46.621Z,3.85
2023-01-07T11:12:54.919Z,3.90
2023-01-07T11:15:59.790Z,3.89
2023-01-07T11:19:07.924Z,3.88
2023-01-07T11:22:28.371Z,3.90
2023-01-07T11:25:31.052Z,3.73
2023-01-07T11:28:34.385Z,3.67
2023-01-07T11:31:55.749Z,3.66
2023-01-07T11:35:04.063Z,3.75
2023-01-07T11:38:33.087Z,3.80
2023-01-07T11:41:35.465Z,3.61
2023-01-07T11:44:37.785Z,3.81
2023-01-07T11:47:46.741Z,3.80
2023-01-07T11:50:55.144Z,3.80
2023-01-07T11:53:58.519Z,3.87
2023-01-07T11:57:25.752Z,3.96
2023-01-07T12:00:31.475Z,4.00
2023-01-07T12:03:35.056Z,3.86
2023-01-07T12:06:40.008Z,3.83
2023-01-07T12:09:44.326Z,3.63
2023-01-07T12:12:46.706Z,3.62
2023-01-07T12:15:56.216Z,3.85
2023-01-07T12:19:04.454Z,3.74
2023-01-07T12:22:35.065Z,3.83
2023-01-07T12:25:44.415Z,3.89
2023-01-07T12:29:08.307Z,3.86
2023-01-07T12:32:29.445Z,3.90
2023-01-07T12:35:42.002Z,3.70
2023-01-07T12:38:53.027Z,3.97
2023-01-07T12:42:02.277Z,3.96
2023-01-07T12:45:07.407Z,3.90
2023-01-07T12:48:17.686Z,3.73
2023-01-07T12:51:52.290Z,3.78
2023-01-07T12:55:05.436Z,3.78
2023-01-07T12:58:13.340Z,3.74
2023-01-07T13:01:22.331Z,3.82
2023-01-07T13:05:01.408Z,3.92
2023-01-07T13:08:09.153Z,3.68
2023-01-07T13:11:20.220Z,3.51
2023-01-07T13:14:46.000Z,3.64
2023-01-07T13:17:54.179Z,3.72
2023-01-07T13:21:11.286Z,3.65
2023-01-07T13:24:54.599Z,3.56
2023-01-07T13:28:28.153Z,3.52
2023-01-07T13:31:43.093Z,3.88
2023-01-07T13:35:00.595Z,3.92
2023-01-07T13:38:05.700Z,3.92
2023-01-07T13:41:20.064Z,3.98
2023-01-07T13:44:40.800Z,3.87
2023-01-07T13:47:52.354Z,3.77
2023-01-07T13:51:01.053Z,3.91
2023-01-07T13:54:03.552Z,3.91
2023-01-07T13:57:24.059Z,4.09
2023-01-07T14:00:48.472Z,4.12
2023-01-07T14:04:07.021Z,4.11
2023-01-07T14:07:10.320Z,3.90
2023-01-07T14:10:32.524Z,3.76
2023-01-07T14:13:42.713Z,3.82
2023-01-07T14:17:13.488Z,3.74
2023-01-07T14:20:33.915Z,3.70
2023-01-07T14:23:41.349Z,3.61
2023-01-07T14:26:53.933Z,3.54
2023-01-07T14:30:15.431Z,3.47
2023-01-07T14:33:37.725Z,3.47
2023-01-07T14:37:01.994Z,3.67
2023-01-07T14:40:29.281Z,3.74
2023-01-07T14:43:43.589Z,3.78
2023-01-07T14:46:47.270Z,3.85
2023-01-07T14:50:05.683Z,3.61
2023-01-07T14:53:17.007Z,3.61
2023-01-07T14:56:51.846Z,3.31
2023-01-07T14:59:56.859Z,3.25
2023-01-07T15:03:01.904Z,3.41
2023-01-07T15:06:25.954Z,3.35
2023-01-07T15:10:00.896Z,3.64
2023-01-07T15:13:21.820Z,3.69
2023-01-07T15:16:24.544Z,3.62
2023-01-07T15:19:27.252Z,3.98
2023-01-07T15:22:51.559Z,3.86
2023-01-07T15:26:11.991Z,3.97
2023-01-07T15:29:42.152Z,3.89
2023-01-07T15:33:02.863Z,3.98
2023-01-07T15:36:07.120Z,4.20
2023-01-07T15:39:18.549Z,4.10
2023-01-07T15:42:22.791Z,4.04
2023-01-07T15:45:27.106Z,4.06
2023-01-07T15:48:29.592Z,4.45
2023-01-07T15:51:32.424Z,4.41
2023-01-07T15:54:39.610Z,4.36
2023-01-07T15:57:42.048Z,4.26
2023-01-07T16:00:44.819Z,4.01
2023-01-07T16:03:49.982Z,4.18
2023-01-07T16:06:56.911Z,4.14
2023-01-07T16:09:59.907Z,4.30
2023-01-07T16:13:04.887Z,3.99
2023-01-07T16:16:07.854Z,4.20
2023-01-07T16:19:18.653Z,4.28
2023-01-07T16:22:23.394Z,4.15
2023-01-07T16:25:33.838Z,4.23
2023-01-07T16:28:40.666Z,4.15
2023-01-07T16:31:43.520Z,4.13
2023-01-07T16:35:10.212Z,4.08
2023-01-07T16:38:13.761Z,4.35
2023-01-07T16:41:21.378Z,4.29
2023-01-07T16:44:44.756Z,4.16
2023-01-07T16:47:59.978Z,4.26
2023-01-07T16:51:02.537Z,4.13
2023-01-07T16:54:23.595Z,4.22
2023-01-07T16:57:38.983Z,4.01
2023-01-07T17:00:49.537Z,4.10
2023-01-07T17:04:03.089Z,4.19
2023-01-07T17:07:06.627Z,4.35
2023-01-07T17:10:19.329Z,4.36
2023-01-07T17:13:24.593Z,4.35
2023-01-07T17:16:33.261Z,4.15
2023-01-07T17:19:40.242Z,4.14
2023-01-07T17:22:42.809Z,4.26
2023-01-07T17:25:45.648Z,4.23
2023-01-07T17:29:02.425Z,4.37
2023-01-07T17:32:05.250Z,4.27
2023-01-07T17:35:15.876Z,4.26
2023-01-07T17:38:19.131Z,4.46
2023-01-07T17:41:42.062Z,4.46
2023-01-07T17:44:45.816Z,4.33
2023-01-07T17:47:49.739Z,4.35
2023-01-07T17:50:52.291Z,4.42
2023-01-07T17:53:57.458Z,4.38
2023-01-07T17:56:59.725Z,4.61
2023-01-07T18:00:02.223Z,4.45
2023-01-07T18:03:14.584Z,4.39
2023-01-07T18:06:24.864Z,4.50
2023-01-07T18:09:27.207Z,4.51
2023-01-07T18:12:33.670Z,4.38
2023-01-07T18:15:36.047Z,4.49
2023-01-07T18:18:38.426Z,4.47
2023-01-07T18:21:41.862Z,4.53
2023-01-07T18:24:44.432Z,4.51
2023-01-07T18:27:47.513Z,4.64
2023-01-07T18:30:50.462Z,4.79
2023-01-07T18:33:52.825Z,4.40
2023-01-07T18:36:55.189Z,4.70
2023-01-07T18:40:02.259Z,4.64
2023-01-07T18:43:04.844Z,4.59
2023-01-07T18:46:09.552Z,4.31
2023-01-07T18:49:12.296Z,4.26
2023-01-07T18:52:14.976Z,4.30
2023-01-07T18:55:19.389Z,4.63
2023-01-07T18:58:22.954Z,4.77
2023-01-07T19:01:26.000Z,4.61
2023-01-07T19:04:28.700Z,4.59
2023-01-07T19:07:31.195Z,4.51
2023-01-07T19:10:33.693Z,4.57
2023-01-07T19:13:36.358Z,4.61
2023-01-07T19:16:39.417Z,4.59
2023-01-07T19:19:48.255Z,4.64
2023-01-07T19:22:51.373Z,4.67
2023-01-07T19:26:00.855Z,4.79
2023-01-07T19:29:04.154Z,4.35
2023-01-07T19:32:06.687Z,4.80
2023-01-07T19:35:09.463Z,4.90
2023-01-07T19:38:16.461Z,4.93
2023-01-07T19:41:20.394Z,4.90
2023-01-07T19:44:22.768Z,4.64
2023-01-07T19:47:25.264Z,4.80
2023-01-07T19:50:27.575Z,4.87
2023-01-07T19:53:31.167Z,5.10
2023-01-07T19:56:34.624Z,4.98
2023-01-07T19:59:37.131Z,4.93
2023-01-07T20:02:39.493Z,4.86
2023-01-07T20:05:41.966Z,4.87
2023-01-07T20:08:44.977Z,4.91
2023-01-07T20:11:47.485Z,4.95
2023-01-07T20:14:49.871Z,4.97
2023-01-07T20:17:52.229Z,4.96
2023-01-07T20:20:56.316Z,4.82
2023-01-07T20:23:59.306Z,5.03
2023-01-07T20:27:01.754Z,4.89
2023-01-07T20:30:06.148Z,4.93
2023-01-07T20:33:08.665Z,5.06
2023-01-07T20:36:12.426Z,5.04
2023-01-07T20:39:14.782Z,5.06
2023-01-07T20:42:17.121Z,5.01
2023-01-07T20:45:19.464Z,5.08
2023-01-07T20:48:21.779Z,5.29
2023-01-07T20:51:24.294Z,5.26
2023-01-07T20:54:26.756Z,5.04
2023-01-07T20:57:29.249Z,5.00
2023-01-07T21:00:31.639Z,5.20
2023-01-07T21:03:34.764Z,5.14
2023-01-07T21:06:37.095Z,5.02
2023-01-07T21:09:39.433Z,5.13
2023-01-07T21:12:41.915Z,5.11
2023-01-07T21:15:44.195Z,4.89
2023-01-07T21:18:47.174Z,5.08
2023-01-07T21:21:50.729Z,4.91
2023-01-07T21:24:53.923Z,4.99
2023-01-07T21:27:56.340Z,4.91
2023-01-07T21:31:06.056Z,5.16
2023-01-07T21:34:08.455Z,5.23
2023-01-07T21:37:10.962Z,5.14
2023-01-07T21:40:13.328Z,5.26
2023-01-07T21:43:15.922Z,5.18
2023-01-07T21:46:18.690Z,5.02
2023-01-07T21:49:21.441Z,5.22
2023-01-07T21:52:23.790Z,5.13
2023-01-07T21:55:26.140Z,5.03
2023-01-07T21:58:28.466Z,5.20
2023-01-07T22:01:31.042Z,5.06
2023-01-07T22:04:34.986Z,5.29
2023-01-07T22:07:37.615Z,5.18
2023-01-07T22:10:39.948Z,5.20
2023-01-07T22:13:42.309Z,5.01
2023-01-07T22:16:46.877Z,4.97
2023-01-07T22:19:50.509Z,4.97
2023-01-07T22:22:52.780Z,4.98
2023-01-07T22:25:55.022Z,4.83
2023-01-07T22:29:01.924Z,5.08
2023-01-07T22:32:05.543Z,4.92
2023-01-07T22:35:08.258Z,4.98
2023-01-07T22:38:12.465Z,4.94
2023-01-07T22:41:14.591Z,4.93
2023-01-07T22:44:20.389Z,4.97
2023-01-07T22:47:26.606Z,5.14
2023-01-07T22:50:28.896Z,4.90
2023-01-07T22:53:31.271Z,4.91
2023-01-07T22:56:34.187Z,5.06
2023-01-07T22:59:36.583Z,5.04
2023-01-07T23:02:39.125Z,4.83
2023-01-07T23:05:41.491Z,5.09
2023-01-07T23:08:44.412Z,5.10
2023-01-07T23:11:50.903Z,4.95
2023-01-07T23:14:53.393Z,5.16
2023-01-07T23:17:56.153Z,4.81
2023-01-07T23:20:58.567Z,5.07
2023-01-07T23:24:01.727Z,5.18
2023-01-07T23:27:04.258Z,5.09
2023-01-07T23:30:07.156Z,5.13
2023-01-07T23:33:09.560Z,5.09
2023-01-07T23:36:11.983Z,5.12
2023-01-07T23:39:14.407Z,5.13
2023-01-07T23:42:16.692Z,5.20
2023-01-07T23:45:19.395Z,5.04
2023-01-07T23:48:21.727Z,5.02
2023-01-07T23:51:24.122Z,4.74
2023-01-07T23:54:26.803Z,4.85
2023-01-07T23:57:29.209Z,4.74
